Time;durP1;ratioP1;P1;durP2;ratioP2;P2;SDS_P1;SDS_P2;PMS_P1;PMS_P2;Temp;Humidity;BMP_temperature;BMP_pressure;BME280_temperature;BME280_humidity;BME280_pressure;Samples;Min_cycle;Max_cycle;Signal;HPM_P1;HPM_P2
2023/02/03 00:00:21;;;;;;;2.70;2.50;;;4.50;99.90;;;;;;5005816;28;20243;-76
2023/02/03 00:02:46;;;;;;;3.20;2.90;;;4.50;99.90;;;;;;5006104;28;20190;-77
2023/02/03 00:05:12;;;;;;;3.13;2.83;;;4.50;99.90;;;;;;5005626;28;20188;-77
2023/02/03 00:07:39;;;;;;;3.93;2.90;;;4.50;99.90;;;;;;5005128;28;20717;-76
2023/02/03 00:10:05;;;;;;;3.03;2.73;;;4.50;1.00;;;;;;5004661;28;20219;-76
2023/02/03 00:12:32;;;;;;;3.40;3.10;;;4.60;1.00;;;;;;5004492;28;20179;-77
2023/02/03 00:14:57;;;;;;;3.67;3.37;;;4.70;1.00;;;;;;5005251;28;20707;-77
2023/02/03 00:17:23;;;;;;;3.23;3.00;;;4.70;1.00;;;;;;5004519;28;20195;-77
2023/02/03 00:19:48;;;;;;;4.00;3.07;;;6.20;1.00;;;;;;5005106;28;20212;-76
2023/02/03 00:22:14;;;;;;;3.10;2.80;;;4.70;1.00;;;;;;5004630;28;20190;-77
2023/02/03 00:24:40;;;;;;;4.10;3.70;;;4.70;1.00;;;;;;5004475;28;20554;-76
2023/02/03 00:27:05;;;;;;;3.50;3.20;;;4.80;1.00;;;;;;5004642;28;20180;-76
2023/02/03 00:29:31;;;;;;;5.07;3.27;;;4.80;2.50;;;;;;5004043;28;20204;-77
2023/02/03 00:31:57;;;;;;;3.43;3.13;;;4.80;1.00;;;;;;5004566;28;20180;-77
2023/02/03 00:34:27;;;;;;;3.43;3.13;;;4.80;1.00;;;;;;5004269;28;20187;-76
2023/02/03 00:36:53;;;;;;;3.93;3.53;;;4.80;1.00;;;;;;5004465;28;20186;-76
2023/02/03 00:39:18;;;;;;;3.70;3.40;;;4.90;1.00;;;;;;5003926;28;20286;-76
2023/02/03 00:41:44;;;;;;;3.60;3.30;;;4.90;1.00;;;;;;5004679;28;20301;-76
2023/02/03 00:44:09;;;;;;;4.30;3.77;;;4.90;1.00;;;;;;5004005;28;20191;-77
2023/02/03 00:46:35;;;;;;;4.03;3.63;;;4.90;1.00;;;;;;5004251;28;20184;-76
2023/02/03 00:49:02;;;;;;;5.27;3.97;;;5.00;99.90;;;;;;5004637;28;20222;-76
2023/02/03 00:51:27;;;;;;;4.63;4.20;;;5.00;90.80;;;;;;5007113;28;20191;-77
2023/02/03 00:53:53;;;;;;;4.30;3.90;;;5.00;99.90;;;;;;5008008;28;20241;-76
2023/02/03 00:56:18;;;;;;;5.03;4.40;;;5.00;99.90;;;;;;5008468;28;20625;-76
2023/02/03 00:58:44;;;;;;;5.03;4.53;;;5.00;99.90;;;;;;5008960;28;20215;-75
2023/02/03 01:01:10;;;;;;;5.87;5.17;;;5.00;53.40;;;;;;5008906;28;20225;-77
2023/02/03 01:03:36;;;;;;;5.90;5.30;;;5.10;99.90;;;;;;5007033;28;20658;-76
2023/02/03 01:06:13;;;;;;;6.10;5.40;;;5.10;99.90;;;;;;5008655;28;20188;-76
2023/02/03 01:08:38;;;;;;;5.90;5.30;;;5.20;99.80;;;;;;5007451;28;20202;-76
2023/02/03 01:11:14;;;;;;;6.73;5.73;;;5.20;1.00;;;;;;5025092;28;20670;-77
2023/02/03 01:13:40;;;;;;;7.70;6.80;;;5.30;99.90;;;;;;5010729;28;20222;-77
2023/02/03 01:16:10;;;;;;;7.80;6.97;;;5.40;1.00;;;;;;5010390;28;20235;-77
2023/02/03 01:18:36;;;;;;;6.87;6.17;;;5.40;99.90;;;;;;5010467;28;20203;-77
2023/02/03 01:21:07;;;;;;;7.27;6.50;;;5.40;99.90;;;;;;5010243;28;20207;-77
2023/02/03 01:23:33;;;;;;;8.40;7.53;;;5.40;59.10;;;;;;5011555;28;20188;-77
2023/02/03 01:26:03;;;;;;;9.43;7.80;;;5.50;1.00;;;;;;5011140;28;20199;-76
2023/02/03 01:28:28;;;;;;;9.67;8.67;;;5.50;99.90;;;;;;5011325;28;20180;-77
2023/02/03 01:30:54;;;;;;;9.33;8.10;;;5.60;99.90;;;;;;5011035;28;20183;-76
2023/02/03 01:33:19;;;;;;;11.00;8.73;;;5.60;99.90;;;;;;5012569;28;20198;-77
2023/02/03 01:35:45;;;;;;;12.37;9.80;;;5.60;1.00;;;;;;5010782;28;20190;-76
2023/02/03 01:38:10;;;;;;;14.20;11.03;;;5.60;99.90;;;;;;5009946;28;20187;-78
2023/02/03 01:40:43;;;;;;;11.37;9.97;;;5.60;99.90;;;;;;5011881;28;20246;-77
2023/02/03 01:43:09;;;;;;;14.00;10.93;;;5.70;99.90;;;;;;5010429;28;20176;-78
2023/02/03 01:45:35;;;;;;;15.17;11.57;;;5.70;1.00;;;;;;5010298;28;20176;-76
2023/02/03 01:48:01;;;;;;;14.10;11.60;;;5.70;99.90;;;;;;5011268;28;20195;-76
2023/02/03 01:50:33;;;;;;;16.83;13.60;;;5.70;1.00;;;;;;5010228;28;20203;-76
2023/02/03 01:53:04;;;;;;;16.63;12.57;;;5.80;1.00;;;;;;5008894;28;20667;-75
2023/02/03 01:55:37;;;;;;;17.00;13.23;;;5.70;1.00;;;;;;5011117;28;20489;-76
2023/02/03 01:58:11;;;;;;;16.83;13.33;;;5.80;1.00;;;;;;5010823;28;20233;-77
2023/02/03 02:00:37;;;;;;;15.60;13.07;;;5.80;1.00;;;;;;5011353;28;20241;-77
2023/02/03 02:03:04;;;;;;;17.23;13.43;;;5.80;1.00;;;;;;5010440;28;20544;-76
2023/02/03 02:05:34;;;;;;;19.03;13.73;;;5.80;99.90;;;;;;5011648;28;20637;-76
2023/02/03 02:08:02;;;;;;;17.90;14.63;;;5.80;99.90;;;;;;5011300;28;20184;-77
2023/02/03 02:10:29;;;;;;;18.23;14.17;;;5.80;99.90;;;;;;5010988;28;20231;-77
2023/02/03 02:12:56;;;;;;;17.90;14.33;;;5.90;99.90;;;;;;5011467;28;20190;-77
2023/02/03 02:15:31;;;;;;;18.03;14.50;;;6.00;1.00;;;;;;5009948;28;20191;-77
2023/02/03 02:18:14;;;;;;;20.27;15.23;;;5.90;1.00;;;;;;5010421;28;20187;-77
2023/02/03 02:21:21;;;;;;;19.87;15.23;;;6.00;1.00;;;;;;5010141;28;20242;-77
2023/02/03 02:24:01;;;;;;;20.13;15.17;;;6.00;99.90;;;;;;5010050;28;20223;-77
2023/02/03 02:27:01;;;;;;;21.13;17.17;;;5.90;1.00;;;;;;5010926;28;20278;-77
2023/02/03 02:29:58;;;;;;;27.20;18.87;;;5.90;99.90;;;;;;5010796;28;20204;-76
2023/02/03 02:32:45;;;;;;;28.77;19.63;;;6.00;1.00;;;;;;5010960;28;20197;-77
2023/02/03 02:35:19;;;;;;;22.67;17.27;;;6.20;99.90;;;;;;5010514;28;20202;-77
2023/02/03 02:38:03;;;;;;;25.53;18.43;;;6.20;1.00;;;;;;5010877;28;20179;-77
2023/02/03 02:40:34;;;;;;;24.10;16.87;;;6.30;99.90;;;;;;5025599;28;20219;-77
2023/02/03 02:43:25;;;;;;;23.87;17.57;;;6.10;1.00;;;;;;5009019;28;20194;-76
2023/02/03 02:46:00;;;;;;;26.20;17.73;;;6.30;99.90;;;;;;5010628;28;20183;-78
2023/02/03 02:48:36;;;;;;;24.23;18.13;;;6.30;1.00;;;;;;5009962;28;20538;-78
2023/02/03 02:51:05;;;;;;;26.90;18.87;;;6.30;15.20;;;;;;5010883;28;20206;-78
2023/02/03 02:53:39;;;;;;;24.40;17.10;;;6.30;99.90;;;;;;5009621;28;20198;-77
2023/02/03 02:56:08;;;;;;;20.23;17.40;;;6.40;1.00;;;;;;5009700;28;20179;-76
2023/02/03 02:58:36;;;;;;;24.10;17.40;;;6.40;99.90;;;;;;5009568;28;20685;-77
2023/02/03 03:01:02;;;;;;;21.23;15.93;;;6.40;93.90;;;;;;5010224;28;20199;-77
2023/02/03 03:03:28;;;;;;;20.20;16.30;;;6.50;99.90;;;;;;5009547;28;20259;-77
2023/02/03 03:06:07;;;;;;;21.10;15.80;;;6.50;19.80;;;;;;5010389;28;20215;-77
2023/02/03 03:09:10;;;;;;;19.57;14.97;;;6.50;99.90;;;;;;5025383;28;20212;-76
2023/02/03 03:12:21;;;;;;;19.70;15.03;;;6.60;46.60;;;;;;5008642;28;20238;-77
2023/02/03 03:14:57;;;;;;;18.70;14.17;;;6.60;1.00;;;;;;5008775;28;20198;-77
2023/02/03 03:17:28;;;;;;;14.67;12.60;;;7.50;99.90;;;;;;5009365;28;20195;-77
2023/02/03 03:19:59;;;;;;;15.13;12.20;;;6.60;99.90;;;;;;5008603;28;20250;-77
2023/02/03 03:22:30;;;;;;;17.00;12.63;;;6.60;1.00;;;;;;5024073;28;20188;-78
2023/02/03 03:25:05;;;;;;;16.63;12.97;;;6.70;1.00;;;;;;5009312;28;20183;-78
2023/02/03 03:27:38;;;;;;;17.87;12.50;;;6.70;1.00;;;;;;5009301;28;20250;-77
2023/02/03 03:30:09;;;;;;;18.37;12.40;;;6.60;1.00;;;;;;5009195;28;20200;-78
2023/02/03 03:32:35;;;;;;;15.37;12.60;;;6.60;1.00;;;;;;5009910;28;20551;-77
2023/02/03 03:35:02;;;;;;;14.17;12.07;;;6.70;1.00;;;;;;5008777;28;20179;-78
2023/02/03 03:37:51;;;;;;;13.80;12.30;;;6.60;99.90;;;;;;5008654;28;20191;-77
2023/02/03 03:40:22;;;;;;;14.17;11.63;;;6.70;99.90;;;;;;5008331;28;20226;-78
2023/02/03 03:43:00;;;;;;;13.80;10.90;;;6.80;1.00;;;;;;5009332;28;20218;-78
2023/02/03 03:45:54;;;;;;;14.00;10.83;;;6.90;1.00;;;;;;5008905;28;20179;-77
2023/02/03 03:48:53;;;;;;;13.07;11.20;;;6.70;1.00;;;;;;5006129;28;20878;-76
2023/02/03 03:51:26;;;;;;;12.50;10.43;;;6.90;1.00;;;;;;5008315;28;20187;-77
2023/02/03 03:53:55;;;;;;;10.70;9.60;;;6.90;1.00;;;;;;5023963;28;20636;-78
2023/02/03 03:56:31;;;;;;;12.83;10.00;;;6.90;1.00;;;;;;5007104;28;20230;-77
2023/02/03 03:58:59;;;;;;;14.40;10.30;;;7.00;1.00;;;;;;5007299;28;20203;-77
2023/02/03 04:01:26;;;;;;;13.30;10.77;;;6.90;1.00;;;;;;5006922;28;20203;-77
2023/02/03 04:03:57;;;;;;;13.50;10.27;;;6.90;1.00;;;;;;5005816;28;20176;-78
2023/02/03 04:06:22;;;;;;;13.83;11.23;;;6.90;1.00;;;;;;5006738;28;20175;-76
2023/02/03 04:08:48;;;;;;;11.00;9.57;;;7.00;1.00;;;;;;5006883;28;20203;-77
2023/02/03 04:11:59;;;;;;;13.03;9.73;;;6.90;1.00;;;;;;5005853;28;20210;-78
2023/02/03 04:13:59;;;;;;;12.10;10.67;;;6.90;1.00;;;;;;5006312;28;20198;-78
2023/02/03 04:16:24;;;;;;;13.40;10.10;;;6.90;99.90;;;;;;5006847;28;20203;-77
2023/02/03 04:18:50;;;;;;;14.70;9.73;;;6.90;1.00;;;;;;5007000;28;20219;-77
2023/02/03 04:21:15;;;;;;;11.33;9.73;;;7.00;99.90;;;;;;5008831;28;20425;-77
2023/02/03 04:23:41;;;;;;;10.60;9.50;;;6.90;99.90;;;;;;5007731;28;20192;-76
2023/02/03 04:26:06;;;;;;;11.77;9.43;;;6.90;99.90;;;;;;5009288;28;20238;-76
2023/02/03 04:28:32;;;;;;;12.60;9.10;;;7.00;99.90;;;;;;5007757;28;20654;-78
2023/02/03 04:31:00;;;;;;;10.80;8.77;;;7.00;99.90;;;;;;5008954;28;20262;-77
2023/02/03 04:33:25;;;;;;;10.37;8.30;;;7.00;99.90;;;;;;5008196;28;20191;-77
2023/02/03 04:35:51;;;;;;;10.67;8.40;;;6.90;99.90;;;;;;5008867;28;20207;-77
2023/02/03 04:38:17;;;;;;;13.17;9.17;;;7.00;99.90;;;;;;5007763;28;20238;-76
2023/02/03 04:40:44;;;;;;;11.27;8.83;;;6.90;99.90;;;;;;5009523;28;20265;-77
2023/02/03 04:43:10;;;;;;;11.97;8.97;;;7.00;99.90;;;;;;5007126;28;20290;-77
2023/02/03 04:45:37;;;;;;;11.10;8.93;;;7.00;99.90;;;;;;5007051;28;20182;-76
2023/02/03 04:48:05;;;;;;;10.67;8.87;;;7.00;99.90;;;;;;5008355;28;20479;-77
2023/02/03 04:50:31;;;;;;;10.73;9.53;;;7.00;99.90;;;;;;5007733;28;20249;-78
2023/02/03 04:53:00;;;;;;;13.63;9.23;;;7.10;99.90;;;;;;5008361;28;20695;-77
2023/02/03 04:55:27;;;;;;;13.20;9.00;;;7.10;99.90;;;;;;5007385;28;20190;-77
2023/02/03 04:57:56;;;;;;;14.13;9.17;;;7.10;99.90;;;;;;5007464;28;20179;-76
2023/02/03 05:00:22;;;;;;;10.70;8.73;;;7.10;99.90;;;;;;5006467;28;20215;-77
2023/02/03 05:02:57;;;;;;;13.13;8.43;;;8.30;99.90;;;;;;5008325;28;20172;-77
2023/02/03 05:05:26;;;;;;;11.15;8.32;;;7.20;99.90;;;;;;5004950;28;21390;-76
2023/02/03 05:07:51;;;;;;;13.30;8.90;;;7.20;99.90;;;;;;5008424;28;20253;-78
2023/02/03 05:10:17;;;;;;;15.03;9.23;;;7.10;99.90;;;;;;5008541;28;20230;-77
2023/02/03 05:12:42;;;;;;;11.13;8.00;;;7.10;99.90;;;;;;5007836;28;20187;-77
2023/02/03 05:15:08;;;;;;;9.13;7.07;;;7.10;99.90;;;;;;5008616;28;20180;-78
2023/02/03 05:17:37;;;;;;;8.73;7.50;;;7.20;99.90;;;;;;5009519;28;20186;-77
2023/02/03 05:20:03;;;;;;;9.47;7.20;;;7.20;99.90;;;;;;5008528;28;20203;-77
2023/02/03 05:22:29;;;;;;;9.20;7.57;;;7.20;99.90;;;;;;5008984;28;20197;-77
2023/02/03 05:24:54;;;;;;;12.63;7.87;;;7.30;99.90;;;;;;5008109;28;20274;-77
2023/02/03 05:27:20;;;;;;;11.10;8.30;;;7.30;99.90;;;;;;5008066;28;20231;-76
2023/02/03 05:29:45;;;;;;;11.43;7.83;;;7.40;99.90;;;;;;5008536;28;20286;-76
2023/02/03 05:32:11;;;;;;;12.70;8.40;;;7.30;99.90;;;;;;5008431;28;20238;-78
2023/02/03 05:34:36;;;;;;;12.87;7.57;;;7.40;99.90;;;;;;5007793;28;20195;-77
2023/02/03 05:37:02;;;;;;;12.07;6.80;;;7.30;99.90;;;;;;5010265;28;20202;-76
2023/02/03 05:39:28;;;;;;;12.60;8.20;;;7.40;99.90;;;;;;5010995;28;20204;-77
2023/02/03 05:41:53;;;;;;;11.47;7.30;;;7.30;99.90;;;;;;5011873;28;20235;-76
2023/02/03 05:44:27;;;;;;;12.23;7.77;;;7.30;99.90;;;;;;5011673;28;20184;-77
2023/02/03 05:46:55;;;;;;;12.87;7.53;;;7.30;99.90;;;;;;5011907;28;20183;-78
2023/02/03 05:49:22;;;;;;;11.57;7.78;;;7.30;99.90;;;;;;5010962;28;20490;-77
2023/02/03 05:51:48;;;;;;;10.43;7.90;;;7.40;99.90;;;;;;5011468;28;20233;-78
2023/02/03 05:54:14;;;;;;;13.30;7.67;;;7.40;99.90;;;;;;5012713;28;20450;-76
2023/02/03 05:56:40;;;;;;;10.10;7.10;;;7.30;99.90;;;;;;5011636;28;20191;-78
2023/02/03 05:59:06;;;;;;;12.43;7.60;;;7.30;99.90;;;;;;5011766;28;20225;-78
2023/02/03 06:01:32;;;;;;;11.77;7.17;;;9.00;99.90;;;;;;5011437;28;20275;-78
2023/02/03 06:04:00;;;;;;;10.67;7.00;;;7.30;99.90;;;;;;5010151;28;20183;-77
2023/02/03 06:06:31;;;;;;;11.40;7.47;;;7.40;99.90;;;;;;5011313;28;20190;-76
2023/02/03 06:08:58;;;;;;;11.27;7.80;;;7.40;99.90;;;;;;5010546;28;20227;-77
2023/02/03 06:11:23;;;;;;;8.77;6.40;;;7.40;99.90;;;;;;5009842;28;20218;-77
2023/02/03 06:13:49;;;;;;;9.57;7.13;;;7.40;99.90;;;;;;5011050;28;20207;-77
2023/02/03 06:16:15;;;;;;;8.73;6.60;;;7.30;99.90;;;;;;5010234;28;20210;-76
2023/02/03 06:18:41;;;;;;;10.93;7.53;;;7.30;99.90;;;;;;5010434;28;20258;-77
2023/02/03 06:21:06;;;;;;;8.47;6.93;;;7.40;99.90;;;;;;5009529;28;20216;-76
2023/02/03 06:23:32;;;;;;;8.43;6.20;;;7.30;99.90;;;;;;5010851;28;20191;-77
2023/02/03 06:25:59;;;;;;;8.20;6.13;;;7.30;99.90;;;;;;5010449;28;20199;-76
2023/02/03 06:28:25;;;;;;;8.07;5.73;;;7.40;99.90;;;;;;5010653;28;20187;-77
2023/02/03 06:30:51;;;;;;;8.47;6.47;;;7.50;99.90;;;;;;5008068;28;20187;-76
2023/02/03 06:33:18;;;;;;;9.77;7.23;;;7.40;99.90;;;;;;5010475;28;20188;-78
2023/02/03 06:35:44;;;;;;;10.73;6.20;;;7.50;99.90;;;;;;5010241;28;20195;-78
2023/02/03 06:38:10;;;;;;;10.20;5.83;;;7.40;99.90;;;;;;5009175;28;20300;-78
2023/02/03 06:40:35;;;;;;;8.13;5.17;;;7.30;99.90;;;;;;5009887;28;20337;-77
2023/02/03 06:43:01;;;;;;;7.20;5.23;;;7.40;99.90;;;;;;5009558;28;20329;-77
2023/02/03 06:45:26;;;;;;;6.60;4.77;;;7.50;99.90;;;;;;5009402;28;20238;-78
2023/02/03 06:47:52;;;;;;;7.67;4.83;;;7.50;99.90;;;;;;5008282;28;20199;-78
2023/02/03 06:50:18;;;;;;;11.03;4.50;;;7.40;99.90;;;;;;5010195;28;20207;-77
2023/02/03 06:52:44;;;;;;;5.60;4.00;;;7.50;99.90;;;;;;5010377;28;20183;-77
2023/02/03 06:55:09;;;;;;;7.47;4.70;;;7.40;99.90;;;;;;5008404;28;20180;-77
2023/02/03 06:57:41;;;;;;;8.10;4.95;;;7.50;99.90;;;;;;5006174;28;20422;-77
2023/02/03 07:00:07;;;;;;;8.20;4.50;;;7.60;99.90;;;;;;5007231;28;20423;-78
2023/02/03 07:02:33;;;;;;;7.43;4.17;;;7.60;99.90;;;;;;5007335;28;20203;-78
2023/02/03 07:04:58;;;;;;;7.63;4.80;;;7.50;99.90;;;;;;5007676;28;20250;-77
2023/02/03 07:07:24;;;;;;;8.13;4.53;;;7.50;99.90;;;;;;5007481;28;20196;-76
2023/02/03 07:09:49;;;;;;;8.30;4.50;;;7.60;99.90;;;;;;5007905;28;20219;-78
2023/02/03 07:12:15;;;;;;;6.57;4.57;;;7.60;99.90;;;;;;5007346;28;20199;-76
2023/02/03 07:14:41;;;;;;;7.93;4.60;;;7.50;99.90;;;;;;5008492;28;20214;-77
2023/02/03 07:17:06;;;;;;;7.13;4.00;;;7.50;99.90;;;;;;5007730;28;20748;-78
2023/02/03 07:19:32;;;;;;;6.47;4.37;;;7.50;99.90;;;;;;5007650;28;21154;-77
2023/02/03 07:21:57;;;;;;;6.90;4.30;;;7.50;99.90;;;;;;5003915;28;20215;-78
2023/02/03 07:24:23;;;;;;;6.43;4.30;;;7.40;99.90;;;;;;5007147;28;20191;-76
2023/02/03 07:26:49;;;;;;;6.47;4.10;;;7.40;99.90;;;;;;5007531;28;20258;-77
2023/02/03 07:29:14;;;;;;;7.20;4.30;;;7.50;99.90;;;;;;5006466;28;20369;-77
2023/02/03 07:31:40;;;;;;;6.40;4.20;;;7.40;99.90;;;;;;5010338;28;20598;-78
2023/02/03 07:34:06;;;;;;;7.20;4.30;;;7.40;99.90;;;;;;5008594;28;20188;-77
2023/02/03 07:36:32;;;;;;;10.80;4.37;;;7.40;99.90;;;;;;5009455;28;20277;-77
2023/02/03 07:38:57;;;;;;;8.17;4.17;;;7.50;99.90;;;;;;5008822;28;20199;-76
2023/02/03 07:41:23;;;;;;;5.43;3.87;;;7.50;99.90;;;;;;5009605;28;20251;-77
2023/02/03 07:43:49;;;;;;;5.20;3.80;;;7.50;99.90;;;;;;5009147;28;20318;-77
2023/02/03 07:46:15;;;;;;;6.27;3.43;;;7.50;99.90;;;;;;5009374;28;20198;-77
2023/02/03 07:48:40;;;;;;;5.17;3.50;;;7.60;99.90;;;;;;5007683;28;20229;-77
2023/02/03 07:51:06;;;;;;;5.23;4.00;;;7.50;99.90;;;;;;5009609;28;20188;-77
2023/02/03 07:53:31;;;;;;;5.07;3.80;;;7.50;99.90;;;;;;5008189;28;20195;-77
2023/02/03 07:56:04;;;;;;;5.83;3.83;;;7.60;99.90;;;;;;5009147;28;20203;-77
2023/02/03 07:58:33;;;;;;;8.27;3.97;;;7.50;99.90;;;;;;5007303;28;20198;-77
2023/02/03 08:00:59;;;;;;;5.23;3.70;;;7.50;99.90;;;;;;5007516;28;20207;-77
2023/02/03 08:03:25;;;;;;;5.40;3.30;;;7.50;99.90;;;;;;5008748;28;20306;-78
2023/02/03 08:05:52;;;;;;;3.90;3.20;;;7.40;99.90;;;;;;5008920;28;20188;-77
2023/02/03 08:08:17;;;;;;;4.30;3.70;;;7.50;99.90;;;;;;5007497;28;20189;-76
2023/02/03 08:10:43;;;;;;;5.20;3.60;;;7.50;99.90;;;;;;5008896;28;20209;-78
2023/02/03 08:13:08;;;;;;;6.67;3.30;;;7.60;99.90;;;;;;5008741;28;20271;-77
2023/02/03 08:15:34;;;;;;;4.03;3.47;;;7.60;99.90;;;;;;5007949;28;20183;-77
2023/02/03 08:18:00;;;;;;;5.33;3.17;;;7.60;99.90;;;;;;5008800;28;20693;-77
2023/02/03 08:20:25;;;;;;;3.93;3.00;;;8.70;99.90;;;;;;5007991;28;20718;-78
2023/02/03 08:22:52;;;;;;;7.53;3.30;;;7.50;99.90;;;;;;5009107;28;20187;-77
2023/02/03 08:25:17;;;;;;;3.17;2.87;;;7.50;99.90;;;;;;5008266;28;20199;-77
2023/02/03 08:27:43;;;;;;;5.07;3.03;;;7.50;99.90;;;;;;5007246;28;20253;-77
2023/02/03 08:30:12;;;;;;;4.57;3.50;;;7.50;99.90;;;;;;5008732;28;20207;-77
2023/02/03 08:32:38;;;;;;;4.97;2.90;;;7.60;99.90;;;;;;5007243;28;20186;-77
2023/02/03 08:35:04;;;;;;;5.23;2.90;;;7.60;99.90;;;;;;5005478;28;20187;-77
2023/02/03 08:37:31;;;;;;;4.53;3.40;;;7.60;99.90;;;;;;5021438;28;20555;-78
2023/02/03 08:39:57;;;;;;;5.30;2.93;;;7.60;99.90;;;;;;5005950;28;20199;-77
2023/02/03 08:42:22;;;;;;;4.63;2.80;;;7.50;99.90;;;;;;5004856;28;20229;-77
2023/02/03 08:44:48;;;;;;;3.13;2.43;;;7.50;99.90;;;;;;5020727;28;20183;-77
2023/02/03 08:47:14;;;;;;;2.57;2.20;;;7.40;99.90;;;;;;5006749;28;20253;-77
2023/02/03 08:49:40;;;;;;;2.20;2.00;;;7.40;99.90;;;;;;5006415;28;20369;-78
2023/02/03 08:52:07;;;;;;;2.77;2.00;;;7.80;99.90;;;;;;5005208;28;20701;-77
2023/02/03 08:54:33;;;;;;;3.93;2.10;;;6.00;99.90;;;;;;5006212;28;20191;-78
2023/02/03 08:56:58;;;;;;;3.10;2.40;;;7.40;1.00;;;;;;5004934;28;20202;-77
2023/02/03 08:59:24;;;;;;;2.40;1.63;;;7.40;99.90;;;;;;5002867;28;21688;-78
2023/02/03 09:01:51;;;;;;;2.43;2.17;;;7.50;1.00;;;;;;5005609;28;21190;-77
2023/02/03 09:04:23;;;;;;;1.93;1.80;;;7.40;99.90;;;;;;5005419;28;20688;-78
2023/02/03 09:06:55;;;;;;;2.70;2.00;;;7.40;99.90;;;;;;5005128;28;20195;-77
2023/02/03 09:09:22;;;;;;;2.37;2.10;;;7.40;1.00;;;;;;5004540;28;20215;-76
2023/02/03 09:11:47;;;;;;;2.80;2.43;;;7.70;99.90;;;;;;5005698;28;20195;-78
2023/02/03 09:14:13;;;;;;;3.70;1.93;;;7.40;99.90;;;;;;5007812;28;20202;-77
2023/02/03 09:16:39;;;;;;;2.70;2.43;;;7.50;99.90;;;;;;5009703;28;20203;-77
2023/02/03 09:19:05;;;;;;;2.83;2.00;;;7.50;99.90;;;;;;5008499;28;20220;-76
2023/02/03 09:21:32;;;;;;;3.53;2.40;;;7.60;99.90;;;;;;5010212;28;20223;-76
2023/02/03 09:24:01;;;;;;;2.33;2.13;;;7.60;99.90;;;;;;5008614;28;20196;-78
2023/02/03 09:26:27;;;;;;;4.20;2.90;;;7.60;99.90;;;;;;5008469;28;20191;-78
2023/02/03 09:28:53;;;;;;;3.27;2.90;;;7.70;1.00;;;;;;5009561;28;20273;-78
2023/02/03 09:31:19;;;;;;;2.43;2.23;;;7.70;99.90;;;;;;5009543;28;20184;-76
2023/02/03 09:33:45;;;;;;;3.33;2.40;;;7.50;99.90;;;;;;5008442;28;20270;-76
2023/02/03 09:36:11;;;;;;;3.23;2.80;;;7.50;1.00;;;;;;5008862;28;20195;-77
2023/02/03 09:38:37;;;;;;;3.33;3.00;;;7.50;1.00;;;;;;5009230;28;20617;-78
2023/02/03 09:41:24;;;;;;;4.00;3.37;;;7.40;1.00;;;;;;5008147;28;20262;-76
2023/02/03 09:44:21;;;;;;;5.57;3.50;;;7.40;1.00;;;;;;5007789;28;20634;-76
2023/02/03 09:46:50;;;;;;;6.43;3.90;;;;;;;;;;5009669;28;20235;-77
2023/02/03 09:49:35;;;;;;;5.10;3.33;;;7.30;99.90;;;;;;5009155;28;20211;-78
2023/02/03 09:52:16;;;;;;;4.57;3.80;;;7.40;99.90;;;;;;5009063;28;20175;-78
2023/02/03 09:54:53;;;;;;;9.70;3.77;;;7.40;1.00;;;;;;5008636;28;20722;-77
2023/02/03 09:57:23;;;;;;;4.97;3.30;;;7.40;1.00;;;;;;5008793;28;20206;-77
2023/02/03 09:59:50;;;;;;;5.67;3.90;;;7.40;1.00;;;;;;5009324;28;20271;-77
2023/02/03 10:02:54;;;;;;;8.47;3.90;;;7.50;1.00;;;;;;5009707;28;20227;-78
2023/02/03 10:05:29;;;;;;;5.13;3.43;;;7.50;1.00;;;;;;5010075;28;20284;-77
2023/02/03 10:07:59;;;;;;;6.50;4.50;;;;;;;;;;5010589;28;20183;-77
2023/02/03 10:10:35;;;;;;;5.50;3.70;;;7.50;99.90;;;;;;5008791;28;20834;-77
2023/02/03 10:13:24;;;;;;;8.07;3.63;;;7.50;1.00;;;;;;5025359;28;20665;-78
2023/02/03 10:16:04;;;;;;;9.17;3.47;;;7.60;1.00;;;;;;5009074;28;20203;-78
2023/02/03 10:18:49;;;;;;;9.00;4.40;;;7.60;1.00;;;;;;5008777;28;20186;-78
2023/02/03 10:21:39;;;;;;;10.00;4.03;;;7.60;1.00;;;;;;5008328;28;20211;-77
2023/02/03 10:24:38;;;;;;;6.93;3.47;;;7.60;1.00;;;;;;5006619;28;20176;-76
2023/02/03 10:27:08;;;;;;;6.03;3.47;;;7.50;1.00;;;;;;5005943;28;20239;-77
2023/02/03 10:29:38;;;;;;;5.67;3.20;;;7.50;1.00;;;;;;5005132;28;20674;-78
2023/02/03 10:32:11;;;;;;;9.57;3.73;;;7.50;1.00;;;;;;5005742;28;20267;-78
2023/02/03 10:34:38;;;;;;;5.43;3.50;;;7.60;1.00;;;;;;5005185;28;20354;-77
2023/02/03 10:37:22;;;;;;;6.83;3.10;;;7.60;1.00;;;;;;5007360;28;20179;-78
2023/02/03 10:39:50;;;;;;;7.27;3.10;;;7.80;1.00;;;;;;5007811;28;20199;-77
2023/02/03 10:42:17;;;;;;;6.93;3.10;;;7.80;1.00;;;;;;5006483;28;20211;-78
2023/02/03 10:44:55;;;;;;;6.27;2.80;;;7.90;1.00;;;;;;5009403;28;20189;-76
2023/02/03 10:47:35;;;;;;;5.70;2.80;;;7.90;1.00;;;;;;5004466;28;20648;-78
2023/02/03 10:50:15;;;;;;;8.77;2.80;;;7.90;1.00;;;;;;5007178;28;20199;-76
2023/02/03 10:52:41;;;;;;;6.30;2.53;;;8.00;1.00;;;;;;5022647;28;20652;-77
2023/02/03 10:55:28;;;;;;;6.07;2.50;;;8.00;1.00;;;;;;5006617;28;20216;-77
2023/02/03 10:57:56;;;;;;;6.13;2.60;;;8.00;1.00;;;;;;5008081;28;20210;-77
2023/02/03 11:00:33;;;;;;;6.80;2.70;;;7.90;1.00;;;;;;5006644;28;20216;-77
2023/02/03 11:03:26;;;;;;;6.60;2.50;;;7.90;1.00;;;;;;5006026;28;20187;-76
2023/02/03 11:06:06;;;;;;;5.33;2.70;;;7.80;1.00;;;;;;5007452;28;20233;-76
2023/02/03 11:08:34;;;;;;;7.77;3.20;;;7.80;99.90;;;;;;5007224;28;20203;-77
2023/02/03 11:11:06;;;;;;;3.93;2.10;;;7.60;99.90;;;;;;5005575;28;20673;-76
2023/02/03 11:13:32;;;;;;;6.23;1.80;;;6.10;99.90;;;;;;5007524;28;20250;-77
2023/02/03 11:16:00;;;;;;;6.60;1.70;;;7.40;6.00;;;;;;5007831;28;20200;-77
2023/02/03 11:18:38;;;;;;;5.77;2.37;;;7.50;1.00;;;;;;5002575;28;20225;-76
2023/02/03 11:21:25;;;;;;;4.97;2.20;;;7.40;1.00;;;;;;5007061;28;20210;-77
2023/02/03 11:23:53;;;;;;;8.10;2.97;;;7.40;99.90;;;;;;5004318;28;20186;-77
2023/02/03 11:26:24;;;;;;;9.27;3.03;;;7.30;1.00;;;;;;5004179;28;20211;-77
2023/02/03 11:28:53;;;;;;;7.90;2.80;;;7.40;99.90;;;;;;5005659;28;20225;-77
2023/02/03 11:31:25;;;;;;;6.10;2.70;;;7.40;1.00;;;;;;5006133;28;20274;-76
2023/02/03 11:33:57;;;;;;;5.00;2.30;;;7.40;1.00;;;;;;5006271;28;20183;-78
2023/02/03 11:36:28;;;;;;;7.23;2.80;;;7.50;1.00;;;;;;5005989;28;20187;-77
2023/02/03 11:39:16;;;;;;;6.37;2.60;;;7.60;53.10;;;;;;5006910;28;20207;-77
2023/02/03 11:41:42;;;;;;;5.97;3.10;;;7.60;90.50;;;;;;5006432;28;20227;-77
2023/02/03 11:44:20;;;;;;;5.37;2.63;;;7.70;1.00;;;;;;5007359;28;20187;-77
2023/02/03 11:47:06;;;;;;;14.30;4.27;;;7.70;1.00;;;;;;5004981;28;20211;-76
2023/02/03 11:50:13;;;;;;;15.27;6.73;;;7.80;1.00;;;;;;5001423;28;20282;-77
2023/02/03 11:53:03;;;;;;;10.20;3.17;;;7.90;1.00;;;;;;4987173;28;20195;-77
2023/02/03 11:55:56;;;;;;;12.73;3.73;;;7.90;1.00;;;;;;5006284;28;20198;-76
2023/02/03 11:58:49;;;;;;;7.83;3.23;;;7.90;1.00;;;;;;5005291;28;20757;-77
2023/02/03 12:01:46;;;;;;;9.33;3.23;;;7.90;1.00;;;;;;5006917;28;20286;-77
2023/02/03 12:04:36;;;;;;;9.37;3.00;;;7.90;1.00;;;;;;5007831;28;20313;-77
2023/02/03 12:07:17;;;;;;;9.03;3.83;;;7.80;99.90;;;;;;5007806;28;20180;-78
2023/02/03 12:09:54;;;;;;;11.83;3.70;;;7.80;1.00;;;;;;5006791;28;20241;-77
2023/02/03 12:12:33;;;;;;;16.37;4.33;;;7.70;1.00;;;;;;5007168;28;20194;-77
2023/02/03 12:15:22;;;;;;;11.33;3.53;;;7.80;1.00;;;;;;5007237;28;20191;-79
2023/02/03 12:18:12;;;;;;;13.67;4.03;;;7.70;1.00;;;;;;5007831;28;20200;-77
2023/02/03 12:20:43;;;;;;;15.93;4.33;;;7.70;1.00;;;;;;5006343;28;20211;-77
2023/02/03 12:23:39;;;;;;;12.77;3.80;;;7.70;99.90;;;;;;5003900;28;20206;-77
2023/02/03 12:26:29;;;;;;;10.50;3.47;;;7.90;99.90;;;;;;5006332;28;20227;-77
2023/02/03 12:28:58;;;;;;;14.00;4.13;;;7.90;99.90;;;;;;5005010;28;20261;-77
2023/02/03 12:31:43;;;;;;;19.47;3.73;;;7.90;99.90;;;;;;5004392;28;20211;-77
2023/02/03 12:34:21;;;;;;;11.73;3.43;;;7.90;99.90;;;;;;5019577;28;20187;-76
2023/02/03 12:36:58;;;;;;;13.97;4.57;;;7.90;1.00;;;;;;5002634;28;20509;-77
2023/02/03 12:39:30;;;;;;;14.17;3.33;;;7.70;99.90;;;;;;5003889;28;20992;-77
2023/02/03 12:42:04;;;;;;;11.83;3.90;;;7.70;99.90;;;;;;5001574;28;20211;-77
2023/02/03 12:44:39;;;;;;;13.73;3.27;;;7.80;99.90;;;;;;5004886;28;20183;-77
2023/02/03 12:47:43;;;;;;;12.03;3.73;;;7.70;99.90;;;;;;5007629;28;20179;-78
2023/02/03 12:50:15;;;;;;;10.90;3.60;;;7.60;99.90;;;;;;5008209;28;20242;-79
2023/02/03 12:53:00;;;;;;;11.90;3.40;;;7.70;99.90;;;;;;5006981;28;20265;-78
2023/02/03 12:55:45;;;;;;;15.47;3.37;;;7.60;99.90;;;;;;5006905;28;20175;-76
2023/02/03 12:58:24;;;;;;;10.37;2.73;;;7.60;99.90;;;;;;5005465;28;20190;-77
2023/02/03 13:01:27;;;;;;;9.60;3.37;;;7.70;99.90;;;;;;5005272;28;20203;-76
2023/02/03 13:04:23;;;;;;;13.47;3.67;;;7.70;99.90;;;;;;5002073;28;20611;-77
2023/02/03 13:07:12;;;;;;;15.40;3.83;;;7.60;99.90;;;;;;5004094;28;20719;-77
2023/02/03 13:09:47;;;;;;;14.23;4.47;;;7.80;99.90;;;;;;5005074;28;20199;-76
2023/02/03 13:12:30;;;;;;;12.27;3.93;;;7.80;99.90;;;;;;5004610;28;20183;-76
2023/02/03 13:15:03;;;;;;;18.83;5.47;;;7.80;99.90;;;;;;5005679;28;20187;-77
2023/02/03 13:17:45;;;;;;;18.70;5.50;;;7.80;99.90;;;;;;5002439;28;20191;-76